LFPM 180500Z AUTO 32004KT CAVOK 11/10 Q1023

Sorties Club

Notre Club organise chaque années des sorties c'est l'occasion de faire de belles navigations et de profiter d'une agréable sortie entre pilotes

Les Sorties Club de 2017

Sortie Amboise Chambord Chambord

Les Sorties Club de 2018

Prochaines destinations

Le 28 avril : Albert LFAQ visite musée aéronautique

Le 26 mai : Le Mont St Michel LFRF

Le 23 juin : Le Touquet LFAT

En juillet : Rallye Club- Verdun

Le 11 août : Dieppe LFAB



Sortie Le Touquet
Le Touquet